Time;durP1;ratioP1;P1;durP2;ratioP2;P2;SDS_P1;SDS_P2;PMS_P1;PMS_P2;Temp;Humidity;BMP_temperature;BMP_pressure;BME280_temperature;BME280_humidity;BME280_pressure;Samples;Min_cycle;Max_cycle;Signal;HPM_P1;HPM_P2
2022/01/11 00:00:35;;;;;;;21.17;15.73;;;0.90;91.10;;;;;;5103963;28;20027;-46
2022/01/11 00:03:06;;;;;;;23.42;15.77;;;0.80;91.10;;;;;;5111303;28;20024;-43
2022/01/11 00:08:14;;;;;;;21.67;15.70;;;0.80;91.00;;;;;;5098800;28;20036;-45
2022/01/11 00:10:53;;;;;;;26.48;16.40;;;0.80;90.80;;;;;;5085261;28;20032;-48
2022/01/11 00:13:20;;;;;;;23.63;14.82;;;0.80;91.00;;;;;;5099560;28;20031;-42
2022/01/11 00:15:48;;;;;;;16.58;14.77;;;0.80;91.00;;;;;;5109510;27;20023;-44
2022/01/11 00:18:15;;;;;;;20.15;16.48;;;0.80;91.00;;;;;;5107074;28;20036;-45
2022/01/11 00:20:42;;;;;;;25.30;16.45;;;0.80;91.10;;;;;;5102667;28;20360;-46
2022/01/11 00:25:46;;;;;;;39.58;17.58;;;0.80;90.90;;;;;;5103374;28;20093;-44
2022/01/11 00:28:15;;;;;;;20.20;16.50;;;0.70;90.80;;;;;;5100008;28;20326;-44
2022/01/11 00:30:44;;;;;;;35.38;16.08;;;0.70;91.00;;;;;;5106302;28;20024;-46
2022/01/11 00:33:18;;;;;;;20.20;16.52;;;0.70;90.90;;;;;;5093919;28;20524;-44
2022/01/11 00:35:49;;;;;;;19.60;16.73;;;0.60;90.80;;;;;;5093690;28;20028;-44
2022/01/11 00:38:18;;;;;;;22.27;15.73;;;0.60;90.90;;;;;;5100149;28;20035;-44
2022/01/11 00:40:53;;;;;;;25.50;16.97;;;0.50;90.90;;;;;;5113425;28;20059;-43
2022/01/11 00:43:22;;;;;;;30.63;15.82;;;0.50;90.80;;;;;;5108317;28;20290;-43
2022/01/11 00:45:50;;;;;;;18.65;15.90;;;0.50;91.00;;;;;;5072708;28;20489;-43
2022/01/11 00:48:17;;;;;;;21.15;15.60;;;0.50;90.90;;;;;;5055788;28;20036;-43
2022/01/11 00:50:44;;;;;;;26.10;16.67;;;0.50;91.00;;;;;;5080071;28;20028;-44
2022/01/11 00:53:11;;;;;;;20.98;16.70;;;0.50;90.90;;;;;;5084511;28;20033;-46
2022/01/11 00:55:40;;;;;;;21.70;15.40;;;0.50;90.80;;;;;;5074365;28;20472;-43
2022/01/11 00:58:08;;;;;;;51.65;16.63;;;0.40;90.60;;;;;;5056355;28;20040;-42
2022/01/11 01:00:37;;;;;;;21.00;13.77;;;0.40;90.50;;;;;;5082593;28;20373;-43
2022/01/11 01:03:05;;;;;;;23.83;15.45;;;0.30;90.60;;;;;;5080566;28;20078;-42
2022/01/11 01:05:31;;;;;;;18.58;15.10;;;0.30;90.80;;;;;;5081608;28;20039;-43
2022/01/11 01:08:00;;;;;;;26.60;16.13;;;0.30;90.70;;;;;;5076012;28;20445;-46
2022/01/11 01:10:35;;;;;;;18.85;16.38;;;0.30;90.80;;;;;;5077510;28;20029;-43
2022/01/11 01:13:05;;;;;;;29.23;18.17;;;0.30;90.70;;;;;;5078478;28;20078;-42
2022/01/11 01:15:34;;;;;;;20.98;16.75;;;0.30;90.60;;;;;;5056495;28;20037;-42
2022/01/11 01:18:03;;;;;;;19.50;15.02;;;0.30;90.70;;;;;;5095385;28;20098;-43
2022/01/11 01:20:29;;;;;;;21.38;15.63;;;0.30;90.70;;;;;;5069960;28;20147;-42
2022/01/11 01:22:59;;;;;;;17.27;14.70;;;0.30;90.70;;;;;;5077109;28;20037;-42
2022/01/11 01:25:26;;;;;;;;;;;0.30;90.50;;;;;;5086140;28;20036;-42
2022/01/11 01:27:53;;;;;;;25.73;15.90;;;0.30;90.40;;;;;;5096892;28;20523;-43
2022/01/11 01:30:21;;;;;;;19.80;16.27;;;0.30;90.50;;;;;;5079348;28;20361;-42
2022/01/11 01:32:49;;;;;;;19.35;15.85;;;0.20;90.60;;;;;;5079289;28;20872;-42
2022/01/11 01:35:19;;;;;;;18.70;15.30;;;0.20;90.70;;;;;;5067786;28;20437;-41
2022/01/11 01:37:46;;;;;;;21.95;15.38;;;0.20;90.40;;;;;;5078167;28;20032;-42
2022/01/11 01:40:17;;;;;;;20.55;16.30;;;0.20;90.40;;;;;;5094270;28;20054;-42
2022/01/11 01:42:44;;;;;;;43.45;16.85;;;0.10;90.50;;;;;;5094747;28;20085;-49
2022/01/11 01:45:13;;;;;;;62.40;18.48;;;0.10;90.50;;;;;;5082718;28;20412;-46
2022/01/11 01:47:40;;;;;;;37.60;16.23;;;0.00;90.30;;;;;;5095200;28;20523;-44
2022/01/11 01:50:08;;;;;;;28.02;17.10;;;0.00;90.30;;;;;;5109827;28;20438;-44
2022/01/11 01:52:36;;;;;;;21.63;14.98;;;0.00;90.30;;;;;;5096758;28;20020;-45
2022/01/11 01:55:07;;;;;;;31.00;15.68;;;0.00;90.40;;;;;;5106224;28;20059;-45
2022/01/11 01:57:37;;;;;;;27.48;16.00;;;0.00;90.30;;;;;;5096922;28;20407;-47
2022/01/11 02:00:11;;;;;;;20.90;15.75;;;-3276.70;90.00;;;;;;5096928;28;20403;-45
2022/01/11 02:02:41;;;;;;;20.17;15.10;;;-3276.70;90.40;;;;;;5099455;28;20036;-41
2022/01/11 02:05:11;;;;;;;27.85;17.98;;;-3276.60;90.20;;;;;;5100426;28;20019;-42
2022/01/11 02:07:37;;;;;;;26.38;16.45;;;-3276.60;90.40;;;;;;5096295;28;20137;-42
2022/01/11 02:10:05;;;;;;;18.42;15.98;;;-3276.60;90.40;;;;;;5114489;28;20453;-43
2022/01/11 02:12:31;;;;;;;19.75;16.58;;;-3276.70;90.60;;;;;;5117074;28;20050;-42
2022/01/11 02:14:58;;;;;;;51.03;19.65;;;-3276.70;90.50;;;;;;5117002;27;20114;-43
2022/01/11 02:17:29;;;;;;;19.38;16.88;;;-3276.70;90.20;;;;;;5137218;27;20114;-43
2022/01/11 02:19:59;;;;;;;19.23;16.83;;;-3276.60;90.40;;;;;;5114779;27;20028;-44
2022/01/11 02:22:26;;;;;;;24.63;16.17;;;-3276.60;90.30;;;;;;5115611;28;20596;-42
2022/01/11 02:24:56;;;;;;;20.08;15.50;;;-3276.60;90.20;;;;;;5104482;28;20023;-49
2022/01/11 02:27:22;;;;;;;19.77;16.45;;;-3276.60;90.40;;;;;;5115091;28;20031;-43
2022/01/11 02:29:49;;;;;;;16.63;14.85;;;-3276.50;90.30;;;;;;5116444;28;20497;-43
2022/01/11 02:32:16;;;;;;;21.25;17.00;;;-3276.50;90.40;;;;;;5115500;28;20398;-44
2022/01/11 02:34:43;;;;;;;18.42;15.10;;;-3276.40;90.10;;;;;;5103700;28;20089;-43
2022/01/11 02:37:10;;;;;;;19.20;17.13;;;-3276.30;90.30;;;;;;5116304;28;20122;-45
2022/01/11 02:39:37;;;;;;;18.50;16.55;;;-3276.30;90.50;;;;;;5103366;28;20031;-43
2022/01/11 02:42:04;;;;;;;18.65;15.77;;;-3276.30;90.50;;;;;;5102422;28;20047;-42
2022/01/11 02:44:34;;;;;;;23.42;16.92;;;-3276.30;90.50;;;;;;5107370;28;20054;-45
2022/01/11 02:47:00;;;;;;;20.95;16.98;;;-3276.40;90.60;;;;;;5114884;28;20542;-42
2022/01/11 02:49:27;;;;;;;21.02;16.05;;;-3276.40;90.60;;;;;;5096989;28;20027;-43
2022/01/11 02:51:54;;;;;;;18.63;16.10;;;-3276.40;90.40;;;;;;5095668;28;20024;-42
2022/01/11 02:54:22;;;;;;;18.70;16.00;;;-3276.30;90.30;;;;;;5112719;28;20034;-46
2022/01/11 02:56:50;;;;;;;20.92;16.35;;;-3276.20;90.10;;;;;;5097111;28;20055;-46
2022/01/11 02:59:17;;;;;;;20.77;15.75;;;-3276.20;90.20;;;;;;5077796;28;20115;-46
2022/01/11 03:01:44;;;;;;;23.42;16.95;;;-3276.10;90.30;;;;;;5096205;28;20062;-47
2022/01/11 03:04:11;;;;;;;25.48;17.30;;;-3276.20;90.40;;;;;;5094297;28;20055;-44
2022/01/11 03:06:36;;;;;;;22.00;16.92;;;-3276.20;90.50;;;;;;5110734;28;20084;-45
2022/01/11 03:09:05;;;;;;;24.45;17.10;;;-3276.10;90.60;;;;;;5113158;28;20031;-43
2022/01/11 03:11:33;;;;;;;23.77;18.08;;;-3276.20;90.60;;;;;;5115498;28;20031;-44
2022/01/11 03:14:04;;;;;;;22.13;16.88;;;-3276.20;90.50;;;;;;5110556;28;20088;-46
2022/01/11 03:16:31;;;;;;;23.92;18.55;;;-3276.20;90.50;;;;;;5102771;27;20036;-43
2022/01/11 03:18:58;;;;;;;24.65;17.75;;;-3276.20;90.40;;;;;;5110599;28;20031;-44
2022/01/11 03:21:28;;;;;;;21.33;17.27;;;-3276.20;90.30;;;;;;5111846;28;20032;-43
2022/01/11 03:23:57;;;;;;;23.55;17.98;;;-3276.10;90.40;;;;;;5093991;28;20086;-47
2022/01/11 03:26:22;;;;;;;26.40;18.65;;;-3276.10;90.40;;;;;;5095552;28;20059;-48
2022/01/11 03:28:49;;;;;;;25.88;17.83;;;-3276.20;90.50;;;;;;5095638;28;20724;-45
2022/01/11 03:31:19;;;;;;;37.92;17.67;;;-3276.10;90.30;;;;;;5094444;28;20055;-47
2022/01/11 03:33:46;;;;;;;;;;;-3276.10;90.40;;;;;;5095067;28;20024;-43
2022/01/11 03:36:12;;;;;;;33.60;17.75;;;-3276.10;90.50;;;;;;5113180;28;19944;-49
2022/01/11 03:38:39;;;;;;;28.35;19.33;;;-3276.10;90.30;;;;;;5108978;28;20024;-42
2022/01/11 03:41:04;;;;;;;29.73;18.40;;;-3276.10;90.60;;;;;;5093509;28;20115;-45
2022/01/11 03:43:31;;;;;;;21.30;17.42;;;-3276.10;90.60;;;;;;5098259;28;20111;-43
2022/01/11 03:45:57;;;;;;;27.95;19.23;;;-3276.20;90.60;;;;;;5114540;28;20044;-44
2022/01/11 03:48:24;;;;;;;22.25;18.10;;;-3276.20;90.70;;;;;;5087511;28;20426;-46
2022/01/11 03:50:55;;;;;;;27.88;18.90;;;-3276.30;90.80;;;;;;5095608;28;20516;-43
2022/01/11 03:53:31;;;;;;;29.35;19.33;;;-3276.20;90.60;;;;;;5094499;28;20114;-43
2022/01/11 03:56:21;;;;;;;24.15;19.25;;;-3276.10;90.40;;;;;;5095635;28;20088;-44
2022/01/11 03:58:50;;;;;;;32.22;18.25;;;-3276.20;90.60;;;;;;5098155;28;20043;-43
2022/01/11 04:01:16;;;;;;;23.50;16.52;;;-3276.20;90.50;;;;;;5076408;28;20141;-44
2022/01/11 04:03:44;;;;;;;24.92;20.20;;;-3276.10;90.60;;;;;;5090379;28;20032;-44
2022/01/11 04:06:11;;;;;;;35.50;18.60;;;-3276.20;90.90;;;;;;5081122;28;20107;-43
2022/01/11 04:08:38;;;;;;;28.50;19.10;;;-3276.20;90.70;;;;;;5086500;28;20023;-44
2022/01/11 04:11:05;;;;;;;27.60;18.83;;;-3276.20;90.70;;;;;;5114270;28;20356;-44
2022/01/11 04:13:31;;;;;;;26.70;16.85;;;-3276.10;90.60;;;;;;5110957;28;20094;-43
2022/01/11 04:15:58;;;;;;;26.95;19.08;;;-3276.10;90.80;;;;;;5127243;27;20385;-47
2022/01/11 04:18:26;;;;;;;36.50;18.35;;;-3276.10;90.90;;;;;;5124132;27;20157;-45
2022/01/11 04:20:52;;;;;;;27.30;17.98;;;-3276.00;90.80;;;;;;5089678;28;20039;-41
2022/01/11 04:23:19;;;;;;;27.30;17.48;;;-3276.00;91.00;;;;;;5093843;28;20047;-46
2022/01/11 04:25:46;;;;;;;35.53;19.77;;;-3276.00;91.00;;;;;;5097834;28;20032;-45
2022/01/11 04:28:12;;;;;;;26.27;19.42;;;-3276.00;91.00;;;;;;5093589;28;20357;-44
2022/01/11 04:30:43;;;;;;;26.00;18.48;;;-3276.10;91.10;;;;;;5087039;28;20035;-42
2022/01/11 04:33:09;;;;;;;26.88;19.55;;;-3276.10;90.90;;;;;;5095671;28;20132;-44
2022/01/11 04:35:36;;;;;;;28.73;19.23;;;-3276.00;91.00;;;;;;5109185;28;20035;-42
2022/01/11 04:38:03;;;;;;;28.90;18.83;;;-3276.00;91.00;;;;;;5096334;28;20326;-43
2022/01/11 04:40:30;;;;;;;39.63;19.33;;;-3276.10;91.30;;;;;;5114151;28;20035;-44
2022/01/11 04:42:56;;;;;;;26.65;17.85;;;-3276.10;91.00;;;;;;5113823;28;20029;-44
2022/01/11 04:45:24;;;;;;;28.48;18.27;;;-3276.00;91.10;;;;;;5087570;28;20563;-43
2022/01/11 04:47:56;;;;;;;26.45;18.85;;;-3276.00;91.10;;;;;;5097581;28;20385;-45
2022/01/11 04:50:26;;;;;;;31.52;18.50;;;-3276.00;91.20;;;;;;5093617;28;20027;-44
2022/01/11 04:52:52;;;;;;;;;;;-3276.00;91.20;;;;;;5109802;28;20054;-46
2022/01/11 04:55:23;;;;;;;32.58;19.55;;;-3276.00;91.30;;;;;;5110564;28;19934;-43
2022/01/11 04:57:50;;;;;;;35.35;19.98;;;-3276.10;91.30;;;;;;5109955;28;20043;-48
2022/01/11 05:00:18;;;;;;;30.77;18.23;;;-3276.10;91.20;;;;;;5093636;28;20081;-44
2022/01/11 05:02:46;;;;;;;30.42;18.33;;;-3276.00;91.00;;;;;;5109381;28;20069;-45
2022/01/11 05:05:15;;;;;;;30.45;17.20;;;-3276.00;91.10;;;;;;5101436;28;20028;-44
2022/01/11 05:07:43;;;;;;;25.00;16.98;;;-3276.00;91.00;;;;;;5107019;28;20496;-49
2022/01/11 05:10:10;;;;;;;37.00;17.92;;;-3276.00;91.10;;;;;;5110602;28;20342;-42
2022/01/11 05:12:40;;;;;;;25.60;17.10;;;-3276.00;91.00;;;;;;5097126;28;20063;-44
2022/01/11 05:15:14;;;;;;;24.73;17.70;;;-3276.00;90.90;;;;;;5094220;28;20063;-43
2022/01/11 05:17:41;;;;;;;26.25;17.63;;;-3276.00;91.00;;;;;;5113637;28;20031;-42
2022/01/11 05:20:11;;;;;;;26.05;18.33;;;-3275.90;90.90;;;;;;5112006;28;20061;-42
2022/01/11 05:22:40;;;;;;;27.67;18.48;;;-3276.00;91.00;;;;;;5107810;28;20528;-43
2022/01/11 05:25:09;;;;;;;29.15;17.80;;;-3276.00;90.80;;;;;;5084442;28;20028;-43
2022/01/11 05:27:35;;;;;;;27.43;17.67;;;-3275.90;90.90;;;;;;5112781;28;20028;-44
2022/01/11 05:30:03;;;;;;;27.60;18.08;;;-3275.90;90.80;;;;;;5105739;28;20024;-43
2022/01/11 05:32:30;;;;;;;36.60;19.73;;;-3275.90;91.00;;;;;;5075405;28;20038;-42
2022/01/11 05:34:57;;;;;;;27.80;17.58;;;-3276.00;90.90;;;;;;5099336;28;20063;-42
2022/01/11 05:37:28;;;;;;;30.23;20.58;;;-3276.00;91.00;;;;;;5113486;28;20078;-43
2022/01/11 05:39:55;;;;;;;30.95;19.02;;;-3276.00;90.90;;;;;;5107910;28;20028;-43
2022/01/11 05:42:24;;;;;;;29.02;18.92;;;-3276.00;90.90;;;;;;5093135;28;20064;-42
2022/01/11 05:44:50;;;;;;;27.20;18.73;;;-3276.00;90.70;;;;;;5100065;28;20330;-44
2022/01/11 05:47:20;;;;;;;30.42;19.67;;;-3276.10;90.90;;;;;;5092680;28;20073;-45
2022/01/11 05:49:47;;;;;;;30.88;19.33;;;-3276.00;90.60;;;;;;5105054;28;20032;-43
2022/01/11 05:52:16;;;;;;;31.48;21.85;;;-3276.00;90.70;;;;;;5113248;28;20114;-46
2022/01/11 05:54:45;;;;;;;31.90;19.45;;;-3276.00;90.80;;;;;;5104022;28;20059;-44
2022/01/11 05:57:12;;;;;;;33.90;20.98;;;-3276.10;90.90;;;;;;5086161;28;20059;-43
2022/01/11 05:59:38;;;;;;;33.30;21.17;;;-3276.00;90.80;;;;;;5096532;28;20082;-43
2022/01/11 06:02:08;;;;;;;33.60;20.95;;;-3276.10;90.90;;;;;;5086188;28;20487;-43
2022/01/11 06:04:35;;;;;;;29.80;19.75;;;-3276.10;90.90;;;;;;5116174;28;20220;-46
2022/01/11 06:07:02;;;;;;;33.20;20.45;;;-3276.10;90.90;;;;;;5100608;28;20035;-43
2022/01/11 06:09:29;;;;;;;37.25;23.00;;;-3276.10;90.90;;;;;;5097198;28;20031;-46
2022/01/11 06:11:56;;;;;;;32.83;20.85;;;-3276.10;90.80;;;;;;5116404;28;20039;-44
2022/01/11 06:14:23;;;;;;;33.17;21.60;;;-3276.10;90.80;;;;;;5107222;27;20165;-46
2022/01/11 06:16:50;;;;;;;34.25;20.77;;;-3276.20;90.80;;;;;;5117008;27;20054;-45
2022/01/11 06:19:17;;;;;;;36.65;23.63;;;-3276.20;90.90;;;;;;5113627;28;20123;-47
2022/01/11 06:21:43;;;;;;;36.60;21.83;;;-3276.20;90.90;;;;;;5115853;28;20464;-43
2022/01/11 06:24:12;;;;;;;36.55;20.95;;;-3276.30;90.80;;;;;;5112184;28;20043;-44
2022/01/11 06:26:37;;;;;;;31.92;19.88;;;-3276.20;90.80;;;;;;5079560;28;20412;-42
2022/01/11 06:29:05;;;;;;;33.72;21.13;;;-3276.30;90.70;;;;;;5080595;28;20116;-44
2022/01/11 06:31:34;;;;;;;34.53;20.60;;;-3276.30;90.60;;;;;;5098025;28;20428;-45
2022/01/11 06:34:02;;;;;;;32.10;21.10;;;-3276.30;90.70;;;;;;5115463;28;20329;-45
2022/01/11 06:36:29;;;;;;;28.83;20.80;;;-3276.30;90.60;;;;;;5116334;28;20116;-42
2022/01/11 06:38:56;;;;;;;31.55;21.77;;;-3276.20;90.50;;;;;;5107997;28;20471;-47
2022/01/11 06:41:23;;;;;;;32.88;20.92;;;-3276.20;90.60;;;;;;5112738;28;20037;-42
2022/01/11 06:43:52;;;;;;;30.00;20.15;;;-3276.20;90.70;;;;;;5108847;28;20035;-48
2022/01/11 06:46:17;;;;;;;33.23;21.97;;;-3276.20;90.70;;;;;;5108127;28;20318;-43
2022/01/11 06:48:44;;;;;;;34.13;21.40;;;-3276.20;90.60;;;;;;5114492;28;20046;-48
2022/01/11 06:51:12;;;;;;;38.40;21.98;;;-3276.20;90.60;;;;;;5082494;28;20039;-42
2022/01/11 06:53:39;;;;;;;38.95;22.35;;;-3276.30;90.70;;;;;;5096440;28;20028;-43
2022/01/11 06:56:05;;;;;;;32.58;21.85;;;-3276.30;90.70;;;;;;5109944;28;20084;-44
2022/01/11 06:58:32;;;;;;;46.80;22.15;;;-3276.20;90.70;;;;;;5113209;28;20039;-47
2022/01/11 07:00:59;;;;;;;34.28;22.90;;;-3276.30;90.90;;;;;;5109395;28;20123;-44
2022/01/11 07:03:27;;;;;;;46.25;22.90;;;-3276.30;90.90;;;;;;5094294;28;20119;-46
2022/01/11 07:05:54;;;;;;;57.20;24.27;;;-3276.30;91.20;;;;;;5084236;28;20070;-44
2022/01/11 07:08:21;;;;;;;62.95;25.60;;;-3276.30;91.10;;;;;;5098473;28;20027;-44
2022/01/11 07:10:48;;;;;;;59.75;24.75;;;-3276.30;91.20;;;;;;5114930;28;20027;-44
2022/01/11 07:13:16;;;;;;;40.60;23.90;;;-3276.30;91.10;;;;;;5093939;28;20081;-44
2022/01/11 07:15:43;;;;;;;43.00;26.40;;;-3276.40;91.30;;;;;;5091183;28;20112;-46
2022/01/11 07:18:11;;;;;;;49.88;29.00;;;-3276.40;91.40;;;;;;5112800;28;20028;-43
2022/01/11 07:20:42;;;;;;;44.95;27.50;;;-3276.40;91.50;;;;;;5067800;28;20036;-44
2022/01/11 07:23:11;;;;;;;58.70;28.08;;;-3276.40;91.50;;;;;;5112484;28;20485;-45
2022/01/11 07:25:37;;;;;;;57.63;29.30;;;-3276.40;91.50;;;;;;5109520;28;20333;-44
2022/01/11 07:28:05;;;;;;;66.50;30.55;;;-3276.50;91.60;;;;;;5096101;28;20028;-47
2022/01/11 07:30:32;;;;;;;48.22;30.90;;;-3276.50;91.60;;;;;;5077149;28;20047;-45
2022/01/11 07:32:59;;;;;;;45.95;28.88;;;-3276.50;91.60;;;;;;5078552;28;20606;-45
2022/01/11 07:35:26;;;;;;;59.00;31.63;;;-3276.50;91.60;;;;;;5102185;28;20040;-45
2022/01/11 07:37:53;;;;;;;57.80;31.48;;;-3276.60;91.70;;;;;;5096948;28;20027;-43
2022/01/11 07:40:19;;;;;;;51.22;31.42;;;-3276.60;91.80;;;;;;5112667;28;20043;-47
2022/01/11 07:42:48;;;;;;;57.40;30.05;;;-3276.60;91.90;;;;;;5097058;28;20132;-45
2022/01/11 07:45:15;;;;;;;55.90;32.35;;;-3276.60;91.70;;;;;;5104215;28;20046;-46
2022/01/11 07:47:43;;;;;;;54.85;32.70;;;-3276.60;91.80;;;;;;5093938;28;20056;-44
2022/01/11 07:50:11;;;;;;;52.38;32.38;;;-3276.60;91.80;;;;;;5071313;28;20042;-45
2022/01/11 07:52:38;;;;;;;58.45;29.55;;;-3276.70;91.80;;;;;;5076352;28;20098;-43
2022/01/11 07:55:07;;;;;;;52.90;29.92;;;-3276.60;91.80;;;;;;5104226;28;20089;-45
2022/01/11 07:57:33;;;;;;;53.17;28.25;;;-3276.70;91.80;;;;;;5102479;28;20040;-44
2022/01/11 07:59:58;;;;;;;48.17;27.77;;;-3276.60;91.70;;;;;;5080919;28;20048;-46
2022/01/11 08:02:26;;;;;;;50.75;27.10;;;-3276.60;91.50;;;;;;5101875;28;20031;-44
2022/01/11 08:04:54;;;;;;;46.97;27.50;;;-3276.50;91.40;;;;;;5112943;28;20352;-43
2022/01/11 08:07:21;;;;;;;43.85;25.70;;;-3276.50;91.40;;;;;;5107931;28;20052;-45
2022/01/11 08:09:48;;;;;;;40.10;27.10;;;-3276.50;91.50;;;;;;5081354;28;20074;-44
2022/01/11 08:12:15;;;;;;;43.85;25.65;;;-3276.50;91.40;;;;;;5114539;28;20030;-46
2022/01/11 08:14:42;;;;;;;41.20;26.67;;;-3276.50;91.40;;;;;;5091533;27;20039;-44
2022/01/11 08:17:08;;;;;;;44.20;25.77;;;-3276.60;91.40;;;;;;5096290;27;20064;-43
2022/01/11 08:19:35;;;;;;;41.17;25.92;;;-3276.60;91.40;;;;;;5086160;28;20069;-45
2022/01/11 08:22:03;;;;;;;39.20;25.63;;;-3276.60;91.20;;;;;;5077033;28;20115;-43
2022/01/11 08:24:31;;;;;;;45.13;26.88;;;-3276.60;91.00;;;;;;5094197;28;20036;-44
2022/01/11 08:26:58;;;;;;;37.05;24.88;;;-3276.60;91.00;;;;;;5114026;28;20114;-42
2022/01/11 08:29:25;;;;;;;42.65;25.30;;;-3276.60;91.10;;;;;;5111636;28;20020;-45
2022/01/11 08:31:51;;;;;;;44.30;26.65;;;-3276.70;91.20;;;;;;5093472;28;20030;-47
2022/01/11 08:34:22;;;;;;;41.60;27.08;;;-3276.70;91.20;;;;;;5093672;28;20043;-44
2022/01/11 08:36:50;;;;;;;50.63;27.42;;;0.00;91.20;;;;;;5090911;28;20035;-44
2022/01/11 08:39:20;;;;;;;42.22;24.20;;;0.00;90.90;;;;;;5093765;28;20178;-46
2022/01/11 08:41:47;;;;;;;50.85;25.70;;;0.00;90.90;;;;;;5094485;28;20111;-43
2022/01/11 08:44:14;;;;;;;40.13;25.13;;;0.00;91.00;;;;;;5094883;28;20028;-46
2022/01/11 08:46:42;;;;;;;45.75;27.73;;;0.00;91.00;;;;;;5099423;28;20048;-42
2022/01/11 08:49:10;;;;;;;42.90;27.55;;;0.10;91.30;;;;;;5105055;28;20558;-44
2022/01/11 08:51:37;;;;;;;40.50;27.27;;;0.20;91.30;;;;;;5111012;28;20051;-45
2022/01/11 08:54:04;;;;;;;39.08;26.50;;;0.40;91.20;;;;;;5093437;28;20024;-44
2022/01/11 08:56:32;;;;;;;44.72;29.30;;;0.40;91.00;;;;;;5093786;28;20036;-45
2022/01/11 08:59:02;;;;;;;42.83;26.73;;;0.30;90.90;;;;;;5108626;28;20094;-44
2022/01/11 09:01:31;;;;;;;40.90;27.33;;;0.30;90.90;;;;;;5103151;28;20024;-42
2022/01/11 09:03:58;;;;;;;44.50;28.00;;;0.40;91.00;;;;;;5097888;28;20039;-42
2022/01/11 09:06:25;;;;;;;41.67;27.13;;;0.40;91.10;;;;;;5110564;28;20482;-43
2022/01/11 09:08:54;;;;;;;41.88;27.95;;;0.50;91.10;;;;;;5105584;28;20114;-43
2022/01/11 09:11:19;;;;;;;50.55;27.70;;;0.50;91.00;;;;;;5108749;28;20100;-46
2022/01/11 09:13:47;;;;;;;45.17;26.85;;;0.60;90.90;;;;;;5109981;28;20457;-50
2022/01/11 09:16:18;;;;;;;47.72;29.35;;;0.50;90.80;;;;;;5102942;28;20028;-48
2022/01/11 09:18:46;;;;;;;47.58;28.25;;;0.60;90.90;;;;;;5105892;28;20104;-53
2022/01/11 09:21:12;;;;;;;45.08;30.33;;;0.60;90.90;;;;;;5096161;28;20032;-52
2022/01/11 09:23:38;;;;;;;43.15;29.83;;;0.70;90.80;;;;;;5096486;28;20047;-57
2022/01/11 09:26:03;;;;;;;44.70;28.98;;;0.70;90.90;;;;;;5088385;28;20093;-59
2022/01/11 09:28:30;;;;;;;44.08;29.83;;;0.80;90.90;;;;;;5091285;28;20194;-57
2022/01/11 09:30:57;;;;;;;47.20;28.17;;;0.80;90.70;;;;;;5105029;28;20059;-57
2022/01/11 09:33:24;;;;;;;48.53;30.52;;;0.70;90.70;;;;;;5115983;28;20471;-55
2022/01/11 09:35:51;;;;;;;47.40;30.23;;;0.70;90.70;;;;;;5117190;28;20067;-59
2022/01/11 09:38:18;;;;;;;49.22;30.08;;;0.70;90.80;;;;;;5108293;28;20024;-59
2022/01/11 09:40:44;;;;;;;53.80;33.05;;;0.80;90.80;;;;;;5097014;28;20032;-56
2022/01/11 09:43:13;;;;;;;51.40;30.27;;;0.80;90.80;;;;;;5105077;28;20092;-54
2022/01/11 09:45:39;;;;;;;55.80;31.88;;;0.80;90.80;;;;;;5111810;28;20122;-53
2022/01/11 09:48:06;;;;;;;54.00;33.50;;;0.80;90.90;;;;;;5096611;28;20516;-53
2022/01/11 09:50:33;;;;;;;53.35;33.95;;;0.80;90.90;;;;;;5090418;28;20369;-54
2022/01/11 09:53:00;;;;;;;55.10;32.83;;;0.80;90.90;;;;;;5108794;28;20055;-57
2022/01/11 09:55:28;;;;;;;56.05;36.05;;;0.90;91.10;;;;;;5110522;28;20138;-55
2022/01/11 09:57:56;;;;;;;56.10;35.33;;;0.90;90.90;;;;;;5090552;28;20105;-49
2022/01/11 10:00:23;;;;;;;60.80;37.78;;;0.90;90.90;;;;;;5102744;28;20107;-50
2022/01/11 10:02:49;;;;;;;59.05;36.78;;;0.90;91.00;;;;;;5100002;28;20093;-56
2022/01/11 10:05:16;;;;;;;54.42;32.78;;;0.90;90.80;;;;;;5103861;28;20119;-54
2022/01/11 10:07:46;;;;;;;57.63;33.92;;;0.90;91.00;;;;;;5114118;28;20031;-57
2022/01/11 10:10:24;;;;;;;59.13;34.70;;;1.00;91.20;;;;;;5090933;28;20028;-57
2022/01/11 10:12:54;;;;;;;54.85;34.42;;;1.10;91.20;;;;;;5113847;28;20130;-57
2022/01/11 10:15:35;;;;;;;58.60;36.33;;;1.20;91.10;;;;;;5108642;27;20107;-59
2022/01/11 10:18:03;;;;;;;58.70;34.08;;;1.40;91.00;;;;;;5099350;28;20510;-60
2022/01/11 10:20:30;;;;;;;61.38;34.95;;;1.50;90.90;;;;;;5090140;28;20379;-60
2022/01/11 10:23:05;;;;;;;55.45;34.53;;;1.70;90.80;;;;;;5097141;28;20123;-60
2022/01/11 10:25:42;;;;;;;58.28;33.65;;;1.90;90.50;;;;;;5114166;28;20024;-59
2022/01/11 10:28:09;;;;;;;54.22;34.92;;;1.90;90.00;;;;;;5096259;28;20395;-59
2022/01/11 10:30:36;;;;;;;47.00;30.88;;;2.00;90.10;;;;;;5106289;28;20028;-57
2022/01/11 10:33:07;;;;;;;48.88;30.27;;;2.00;89.70;;;;;;5085245;28;20035;-55
2022/01/11 10:35:44;;;;;;;48.03;31.10;;;2.10;89.70;;;;;;5105877;28;20031;-55
2022/01/11 10:38:14;;;;;;;45.55;31.10;;;2.20;89.40;;;;;;5098350;28;20036;-53
2022/01/11 10:41:01;;;;;;;48.85;29.83;;;2.10;89.20;;;;;;5110940;28;20086;-51
2022/01/11 10:43:29;;;;;;;48.88;29.80;;;2.10;89.10;;;;;;5115373;28;20036;-54
2022/01/11 10:45:59;;;;;;;44.40;27.92;;;2.20;89.20;;;;;;5109792;28;20040;-52
2022/01/11 10:48:28;;;;;;;37.83;26.42;;;2.20;89.00;;;;;;5115982;28;20020;-51
2022/01/11 10:50:59;;;;;;;44.40;28.27;;;2.20;89.10;;;;;;5112726;28;20476;-48
2022/01/11 10:53:49;;;;;;;40.10;27.60;;;2.10;89.00;;;;;;5115313;28;20068;-53
2022/01/11 10:56:18;;;;;;;36.15;24.58;;;2.10;89.20;;;;;;5104593;28;20032;-54
2022/01/11 10:59:08;;;;;;;39.00;25.23;;;2.10;89.10;;;;;;5095527;28;20036;-54
2022/01/11 11:01:35;;;;;;;37.28;24.73;;;2.10;89.20;;;;;;5060903;28;20364;-53
2022/01/11 11:04:02;;;;;;;39.45;25.92;;;2.20;89.20;;;;;;5078058;28;20028;-52
2022/01/11 11:06:29;;;;;;;37.00;23.58;;;2.10;89.30;;;;;;5079369;28;20032;-53
2022/01/11 11:08:55;;;;;;;36.50;24.58;;;2.10;89.30;;;;;;5098191;28;20039;-51
2022/01/11 11:11:23;;;;;;;41.45;25.77;;;2.20;89.50;;;;;;5111443;28;20071;-49
2022/01/11 11:13:57;;;;;;;35.30;22.40;;;2.30;89.30;;;;;;5078972;28;20473;-49
2022/01/11 11:16:29;;;;;;;34.05;23.85;;;2.30;89.20;;;;;;5100373;28;20091;-50
2022/01/11 11:19:13;;;;;;;31.65;21.58;;;2.30;89.20;;;;;;5113500;28;20062;-48
2022/01/11 11:21:40;;;;;;;36.08;20.38;;;2.30;89.10;;;;;;5087551;28;20078;-47
2022/01/11 11:24:11;;;;;;;30.98;21.17;;;2.40;89.20;;;;;;5099832;28;20028;-44
2022/01/11 11:26:41;;;;;;;30.63;20.77;;;2.40;88.90;;;;;;5103152;28;20448;-44
2022/01/11 11:29:10;;;;;;;27.92;19.35;;;2.40;88.60;;;;;;5115130;28;20069;-49
2022/01/11 11:31:37;;;;;;;32.53;19.93;;;2.40;88.90;;;;;;5095674;28;20457;-46
2022/01/11 11:34:07;;;;;;;26.75;18.48;;;2.50;88.80;;;;;;5083600;28;20051;-43
2022/01/11 11:36:35;;;;;;;;;;;2.60;88.70;;;;;;5097320;28;20345;-43
2022/01/11 11:39:11;;;;;;;27.23;18.25;;;2.70;88.60;;;;;;5094632;28;19904;-48
2022/01/11 11:41:45;;;;;;;29.27;19.75;;;2.80;88.40;;;;;;5113770;28;20031;-43
2022/01/11 11:44:20;;;;;;;26.10;18.05;;;2.80;88.30;;;;;;5093864;28;20026;-44
2022/01/11 11:47:05;;;;;;;30.13;19.30;;;2.90;88.30;;;;;;5112922;28;20048;-48
2022/01/11 11:49:47;;;;;;;25.35;17.30;;;3.00;87.90;;;;;;5111418;28;20020;-48
2022/01/11 11:52:22;;;;;;;34.40;18.48;;;2.90;87.70;;;;;;5094838;28;20123;-46
2022/01/11 11:55:28;;;;;;;25.23;18.63;;;2.90;87.90;;;;;;5104870;28;20024;-47
2022/01/11 11:58:09;;;;;;;25.05;16.83;;;3.00;87.80;;;;;;5110380;28;20047;-45
2022/01/11 12:00:43;;;;;;;26.13;17.00;;;3.00;87.60;;;;;;5110900;28;20027;-47
2022/01/11 12:03:25;;;;;;;26.17;17.02;;;3.00;87.70;;;;;;5113977;28;20115;-44
2022/01/11 12:05:55;;;;;;;25.88;17.15;;;3.00;87.50;;;;;;5104548;28;20031;-46
2022/01/11 12:08:34;;;;;;;21.35;15.18;;;3.00;87.70;;;;;;5090231;28;20028;-45
2022/01/11 12:11:05;;;;;;;26.50;17.70;;;3.00;87.60;;;;;;5100297;28;20463;-42
2022/01/11 12:13:51;;;;;;;26.33;17.88;;;3.00;87.20;;;;;;5076299;28;20096;-42
2022/01/11 12:16:26;;;;;;;22.58;17.30;;;3.10;87.30;;;;;;5112405;28;20023;-43
2022/01/11 12:19:30;;;;;;;23.90;16.33;;;3.10;87.10;;;;;;5103418;28;20024;-48
2022/01/11 12:22:08;;;;;;;31.08;17.70;;;3.10;87.40;;;;;;5093592;28;20046;-42
2022/01/11 12:24:46;;;;;;;24.42;16.13;;;3.20;87.30;;;;;;5095923;28;20419;-44
2022/01/11 12:27:15;;;;;;;21.98;15.13;;;3.30;87.10;;;;;;5114226;28;20425;-43
2022/01/11 12:29:59;;;;;;;19.33;14.52;;;3.30;86.70;;;;;;5097277;28;20387;-43
2022/01/11 12:32:27;;;;;;;23.15;16.48;;;3.30;86.60;;;;;;5113835;28;20031;-45